Time;durP1;ratioP1;P1;durP2;ratioP2;P2;SDS_P1;SDS_P2;PMS_P1;PMS_P2;Temp;Humidity;BMP_temperature;BMP_pressure;BME280_temperature;BME280_humidity;BME280_pressure;Samples;Min_cycle;Max_cycle;Signal;HPM_P1;HPM_P2
2022/04/26 03:36:12;;;;;;;0.47;0.47;;;;;;;9.97;91.44;98265.72;5091282;28;20400;-81
2022/04/26 03:38:43;;;;;;;0.40;0.40;;;;;;;10.00;91.35;98272.47;5073394;28;20044;-81
2022/04/26 03:41:11;;;;;;;0.50;0.50;;;;;;;10.03;91.14;98265.78;4748542;28;10001025;-81
2022/04/26 03:43:38;;;;;;;0.40;0.40;;;;;;;10.03;91.28;98266.59;5108684;28;20503;-82
2022/04/26 03:46:06;;;;;;;0.40;0.40;;;;;;;10.09;90.97;98276.31;5108261;28;20044;-82
2022/04/26 03:48:33;;;;;;;0.50;0.50;;;;;;;10.16;91.06;98274.22;5090294;28;20053;-82
2022/04/26 03:51:00;;;;;;;0.50;0.50;;;;;;;10.28;90.59;98282.16;5107989;28;20040;-83
2022/04/26 03:53:28;;;;;;;0.40;0.40;;;;;;;10.28;90.13;98268.66;5109747;28;20055;-83
2022/04/26 03:55:55;;;;;;;0.50;0.50;;;;;;;10.44;89.64;98282.25;5098157;28;20055;-83
2022/04/26 03:58:22;;;;;;;0.50;0.50;;;;;;;10.60;89.24;98273.13;5114328;28;20082;-81
2022/04/26 04:00:50;;;;;;;0.40;0.40;;;;;;;10.56;88.83;98275.56;5112137;28;20138;-82
2022/04/26 04:03:19;;;;;;;0.40;0.40;;;;;;;10.52;89.29;98279.03;5112739;28;20479;-81
2022/04/26 04:05:46;;;;;;;0.40;0.40;;;;;;;10.50;89.30;98281.19;5095784;28;20048;-83
2022/04/26 04:08:14;;;;;;;0.40;0.40;;;;;;;10.45;89.25;98276.56;5112997;28;20112;-81
2022/04/26 04:10:41;;;;;;;0.40;0.40;;;;;;;10.38;89.49;98274.13;5113499;28;20070;-84
2022/04/26 04:13:08;;;;;;;0.40;0.40;;;;;;;10.43;89.51;98294.09;5116039;28;20051;-80
2022/04/26 04:15:36;;;;;;;0.40;0.40;;;;;;;10.45;89.31;98281.97;5114610;28;20089;-79
2022/04/26 04:19:17;;;;;;;0.40;0.40;;;;;;;10.48;89.35;98280.63;5116291;28;20059;-82
2022/04/26 04:20:52;;;;;;;0.40;0.40;;;;;;;10.53;89.08;98275.25;5117139;28;20054;-81
2022/04/26 04:23:19;;;;;;;0.40;0.40;;;;;;;10.54;88.66;98279.59;5115837;28;20054;-82
2022/04/26 04:25:46;;;;;;;0.40;0.40;;;;;;;10.55;88.87;98279.31;5113965;28;20077;-82
2022/04/26 04:28:14;;;;;;;0.40;0.40;;;;;;;10.58;88.45;98269.88;5113956;28;20490;-82
2022/04/26 04:30:42;;;;;;;0.40;0.40;;;;;;;10.60;88.19;98278.53;5115661;28;20043;-82
2022/04/26 04:33:09;;;;;;;0.40;0.40;;;;;;;10.55;88.32;98276.63;5106273;27;20128;-81
2022/04/26 04:35:37;;;;;;;0.40;0.40;;;;;;;10.60;87.78;98278.53;5103547;28;20052;-81
2022/04/26 04:38:07;;;;;;;0.40;0.40;;;;;;;10.63;87.55;98275.31;5100127;28;20059;-81
2022/04/26 04:40:36;;;;;;;0.40;0.40;;;;;;;10.61;87.71;98272.88;5083094;28;20461;-81
2022/04/26 04:43:03;;;;;;;0.40;0.40;;;;;;;10.58;87.80;98272.59;5100068;28;20048;-82
2022/04/26 04:45:30;;;;;;;0.40;0.40;;;;;;;10.56;87.85;98272.88;5099413;28;20640;-82
2022/04/26 04:47:57;;;;;;;0.40;0.40;;;;;;;10.55;87.94;98275.81;5098570;28;20097;-81
2022/04/26 04:50:25;;;;;;;0.40;0.40;;;;;;;10.51;87.78;98272.84;5085042;28;20044;-82
2022/04/26 04:52:53;;;;;;;0.40;0.40;;;;;;;10.46;87.60;98271.97;5128033;28;20078;-80
2022/04/26 04:55:29;;;;;;;0.40;0.40;;;;;;;10.45;87.61;98275.75;5113390;28;20048;-81
2022/04/26 04:57:57;;;;;;;0.40;0.40;;;;;;;10.37;87.48;98263.59;5104796;28;20448;-80
2022/04/26 05:00:24;;;;;;;0.40;0.40;;;;;;;10.48;87.73;98264.44;5106207;28;20048;-81
2022/04/26 05:02:51;;;;;;;0.50;0.50;;;;;;;10.70;87.33;98267.78;5084747;28;20089;-81
2022/04/26 05:05:18;;;;;;;0.45;0.45;;;;;;;10.88;86.52;98261.13;5094492;28;20101;-82
2022/04/26 05:07:46;;;;;;;0.50;0.50;;;;;;;10.96;85.81;98268.72;5101272;28;20055;-81
2022/04/26 05:10:13;;;;;;;0.45;0.45;;;;;;;11.13;85.51;98264.97;5108306;28;20047;-79
2022/04/26 05:12:40;;;;;;;0.50;0.50;;;;;;;11.24;84.67;98266.63;5110653;28;20145;-81
2022/04/26 05:15:08;;;;;;;0.45;0.45;;;;;;;11.43;83.18;98264.25;5100043;28;20192;-81
2022/04/26 05:17:35;;;;;;;0.40;0.40;;;;;;;11.53;81.13;98258.84;5081760;28;20127;-81
2022/04/26 05:20:04;;;;;;;0.40;0.40;;;;;;;11.58;80.91;98258.03;5055735;28;20071;-80
2022/04/26 05:24:53;;;;;;;0.43;0.43;;;;;;;11.80;79.98;98255.06;5072297;28;20055;-81
2022/04/26 05:25:20;;;;;;;0.40;0.40;;;;;;;12.03;79.22;98253.75;5090515;28;20060;-82
2022/04/26 05:27:49;;;;;;;0.40;0.40;;;;;;;11.83;78.80;98252.66;5094118;28;20525;-81
2022/04/26 05:30:16;;;;;;;0.40;0.40;;;;;;;11.52;79.46;98253.69;5078945;28;20075;-82
2022/04/26 05:32:43;;;;;;;0.50;0.50;;;;;;;11.42;79.07;98246.38;5108909;28;20056;-81
2022/04/26 05:35:11;;;;;;;0.50;0.50;;;;;;;11.35;78.84;98240.47;5110887;28;20104;-82
2022/04/26 05:37:41;;;;;;;0.50;0.50;;;;;;;11.28;78.86;98236.09;5094345;28;20101;-81
2022/04/26 05:40:08;;;;;;;0.50;0.50;;;;;;;11.36;78.11;98237.47;5090902;28;20082;-81
2022/04/26 05:42:38;;;;;;;0.50;0.50;;;;;;;11.35;77.31;98240.47;5098307;28;20503;-82
2022/04/26 05:45:06;;;;;;;0.40;0.40;;;;;;;11.44;77.17;98244.22;5073392;28;20108;-83
2022/04/26 05:47:33;;;;;;;0.50;0.50;;;;;;;11.62;77.43;98238.31;5072796;28;20050;-82
2022/04/26 05:50:02;;;;;;;0.50;0.50;;;;;;;11.87;77.34;98242.13;5082357;28;20083;-82
2022/04/26 05:52:29;;;;;;;0.50;0.50;;;;;;;11.86;76.80;98233.19;5082354;28;20161;-81
2022/04/26 05:54:56;;;;;;;0.50;0.50;;;;;;;11.97;76.82;98238.59;5073843;28;20052;-81
2022/04/26 05:57:23;;;;;;;0.40;0.40;;;;;;;12.01;76.56;98236.97;5105232;28;20058;-83
2022/04/26 05:59:50;;;;;;;0.50;0.50;;;;;;;12.04;76.00;98242.66;5082328;28;20046;-83
2022/04/26 06:02:17;;;;;;;0.50;0.50;;;;;;;12.12;75.49;98239.38;5097001;28;20056;-82
2022/04/26 06:04:46;;;;;;;0.50;0.50;;;;;;;12.35;74.70;98248.00;5104580;28;20050;-83
2022/04/26 06:07:13;;;;;;;0.50;0.50;;;;;;;12.53;74.09;98246.59;5114180;28;20051;-81
2022/04/26 06:09:40;;;;;;;0.50;0.50;;;;;;;12.71;73.68;98246.00;5105565;28;20051;-84
2022/04/26 06:12:08;;;;;;;0.50;0.50;;;;;;;12.90;72.94;98243.47;5074247;28;20047;-85
2022/04/26 06:14:35;;;;;;;0.50;0.50;;;;;;;13.09;72.53;98246.38;5077033;28;20043;-83
2022/04/26 06:17:03;;;;;;;0.45;0.45;;;;;;;13.30;71.83;98249.78;5095532;28;20052;-82
2022/04/26 06:19:30;;;;;;;0.50;0.50;;;;;;;13.61;70.77;98250.38;5094892;28;20073;-84
2022/04/26 06:21:57;;;;;;;0.50;0.50;;;;;;;13.65;69.63;98248.75;5100421;28;20673;-84
2022/04/26 06:24:25;;;;;;;0.50;0.50;;;;;;;13.42;70.73;98254.88;5092835;28;20498;-84
2022/04/26 06:26:52;;;;;;;0.45;0.45;;;;;;;13.60;69.70;98259.63;5099485;28;20044;-83
2022/04/26 06:29:19;;;;;;;0.40;0.40;;;;;;;13.63;69.31;98260.97;5097802;28;20101;-83
2022/04/26 06:31:47;;;;;;;0.50;0.50;;;;;;;13.52;69.88;98267.53;5079674;28;20473;-82
2022/04/26 06:34:15;;;;;;;0.43;0.43;;;;;;;13.86;69.33;98268.38;5102285;28;20048;-85
2022/04/26 06:36:42;;;;;;;0.43;0.43;;;;;;;14.03;67.74;98272.59;5083346;28;20466;-82
2022/04/26 06:39:09;;;;;;;0.40;0.40;;;;;;;13.96;68.20;98285.66;5100788;28;21960;-84
2022/04/26 06:41:42;;;;;;;0.40;0.40;;;;;;;13.62;68.25;98271.00;5104661;28;20052;-83
2022/04/26 06:44:09;;;;;;;0.40;0.40;;;;;;;13.50;68.47;98277.88;5101838;28;20111;-82
2022/04/26 06:46:37;;;;;;;0.40;0.40;;;;;;;13.37;69.42;98280.09;5077902;28;20054;-83
2022/04/26 06:49:05;;;;;;;0.40;0.40;;;;;;;13.52;69.41;98281.91;5088694;28;20117;-83
2022/04/26 06:51:40;;;;;;;0.40;0.40;;;;;;;13.42;68.84;98274.66;5079352;28;20044;-83
2022/04/26 06:54:08;;;;;;;0.40;0.40;;;;;;;13.46;68.70;98284.94;5089844;28;20414;-83
2022/04/26 06:56:35;;;;;;;0.40;0.40;;;;;;;13.52;69.16;98286.50;5091325;28;20052;-82
2022/04/26 06:59:03;;;;;;;0.47;0.47;;;;;;;13.57;68.51;98294.59;5105178;28;20401;-82
2022/04/26 07:01:30;;;;;;;0.50;0.50;;;;;;;13.61;67.76;98287.53;5058750;28;20070;-83
2022/04/26 07:04:07;;;;;;;0.40;0.40;;;;;;;13.74;66.98;98276.03;5107254;28;20694;-82
2022/04/26 07:06:35;;;;;;;0.40;0.40;;;;;;;13.87;65.65;98282.72;5088433;28;20036;-84
2022/04/26 07:09:03;;;;;;;0.40;0.40;;;;;;;14.04;65.33;98272.28;5081049;28;20506;-83
2022/04/26 07:11:30;;;;;;;0.40;0.40;;;;;;;14.16;65.51;98288.19;5086682;28;20040;-82
2022/04/26 07:13:58;;;;;;;0.40;0.40;;;;;;;14.21;64.42;98281.91;5092344;28;20223;-85
2022/04/26 07:16:25;;;;;;;0.50;0.50;;;;;;;14.04;64.80;98282.31;5083755;28;20048;-83
2022/04/26 07:18:53;;;;;;;0.50;0.50;;;;;;;14.11;64.43;98285.53;5085513;28;20039;-84
2022/04/26 07:21:20;;;;;;;0.50;0.50;;;;;;;14.14;63.52;98281.44;5057445;28;20337;-84
2022/04/26 07:23:47;;;;;;;0.50;0.50;;;;;;;14.39;63.54;98293.97;5094190;28;20394;-83
2022/04/26 07:26:14;;;;;;;0.50;0.50;;;;;;;14.55;61.92;98292.72;5081520;28;20059;-83
2022/04/26 07:28:41;;;;;;;0.50;0.50;;;;;;;14.56;60.00;98285.38;5091774;28;20442;-85
2022/04/26 07:31:08;;;;;;;0.57;0.57;;;;;;;14.54;60.88;98282.97;5093936;28;20054;-84
2022/04/26 07:36:22;;;;;;;0.50;0.50;;;;;;;15.00;60.12;98279.72;5093845;28;20044;-84
2022/04/26 07:38:50;;;;;;;0.40;0.40;;;;;;;14.97;60.42;98271.34;5075137;28;20177;-84
2022/04/26 07:41:17;;;;;;;0.40;0.40;;;;;;;14.85;60.27;98269.03;5091666;28;20058;-83
2022/04/26 07:43:45;;;;;;;0.45;0.45;;;;;;;14.72;59.25;98287.66;5099346;28;20048;-84
2022/04/26 07:46:14;;;;;;;0.50;0.50;;;;;;;14.72;59.11;98279.50;5066192;28;20108;-85
2022/04/26 07:48:43;;;;;;;0.50;0.50;;;;;;;14.71;59.27;98277.91;5105531;28;20541;-82
2022/04/26 07:51:11;;;;;;;0.50;0.50;;;;;;;14.78;59.33;98279.44;5098599;28;20248;-82
2022/04/26 07:53:39;;;;;;;0.40;0.40;;;;;;;14.73;59.27;98283.81;5077753;28;20111;-81
2022/04/26 07:56:06;;;;;;;0.40;0.40;;;;;;;15.02;59.39;98280.22;5079523;28;20051;-83
2022/04/26 07:58:34;;;;;;;0.50;0.50;;;;;;;15.37;58.78;98280.88;5094144;28;20048;-85
2022/04/26 08:01:04;;;;;;;0.40;0.40;;;;;;;15.24;58.42;98281.56;5065809;28;20152;-84
2022/04/26 08:03:32;;;;;;;0.40;0.40;;;;;;;14.98;58.05;98281.09;5091264;28;20048;-83
2022/04/26 08:05:59;;;;;;;0.50;0.50;;;;;;;14.84;57.98;98283.72;5092960;28;20056;-83
2022/04/26 08:08:26;;;;;;;0.40;0.40;;;;;;;14.80;57.24;98282.69;5100680;28;20418;-86
2022/04/26 08:10:57;;;;;;;0.50;0.50;;;;;;;14.92;58.46;98280.38;5099482;28;20054;-84
2022/04/26 08:13:24;;;;;;;0.40;0.40;;;;;;;15.30;57.36;98283.13;5098935;28;20058;-83
2022/04/26 08:15:51;;;;;;;0.40;0.40;;;;;;;15.30;57.68;98283.94;5094286;28;20054;-84
2022/04/26 08:18:19;;;;;;;0.50;0.50;;;;;;;15.56;56.97;98278.13;5075427;28;20097;-87
2022/04/26 08:20:46;;;;;;;0.50;0.50;;;;;;;15.70;55.91;98276.31;5100784;28;20036;-85
2022/04/26 08:23:14;;;;;;;0.50;0.50;;;;;;;15.90;55.28;98271.66;5066598;28;20521;-86
2022/04/26 08:28:28;;;;;;;0.50;0.50;;;;;;;15.83;54.79;98277.50;5087725;28;20078;-85
2022/04/26 08:30:56;;;;;;;0.50;0.50;;;;;;;15.83;54.89;98280.22;5099559;28;20044;-86
2022/04/26 08:33:23;;;;;;;0.57;0.57;;;;;;;16.21;54.56;98278.22;5094316;28;20093;-85
2022/04/26 08:35:51;;;;;;;0.52;0.52;;;;;;;16.38;52.33;98280.38;5082592;28;20047;-85
2022/04/26 08:38:34;;;;;;;0.50;0.50;;;;;;;15.98;53.21;98279.97;5075842;28;20039;-85
2022/04/26 08:41:01;;;;;;;0.40;0.40;;;;;;;16.42;52.48;98280.56;5086541;28;20048;-85
2022/04/26 08:43:33;;;;;;;0.50;0.50;;;;;;;16.39;52.81;98273.81;5086327;28;20039;-84
2022/04/26 08:46:03;;;;;;;0.70;0.70;;;;;;;16.82;51.80;98276.28;5107355;28;20096;-86
2022/04/26 08:51:16;;;;;;;0.40;0.40;;;;;;;16.69;51.55;98274.34;5055198;28;20052;-85
2022/04/26 08:53:44;;;;;;;0.40;0.40;;;;;;;16.34;52.79;98273.91;5096191;28;20504;-84
2022/04/26 08:56:12;;;;;;;0.50;0.50;;;;;;;16.18;53.04;98261.66;5094318;28;20055;-84
2022/04/26 08:58:41;;;;;;;0.50;0.50;;;;;;;16.89;51.24;98263.06;5124221;28;20048;-82
2022/04/26 09:01:12;;;;;;;0.60;0.60;;;;;;;17.21;51.14;98264.00;5105631;28;20062;-86
2022/04/26 09:03:56;;;;;;;0.50;0.50;;;;;;;17.69;50.71;98259.94;5093278;28;20047;-85
2022/04/26 09:06:45;;;;;;;0.40;0.40;;;;;;;17.17;49.44;98264.97;5113776;28;20052;-85
2022/04/26 09:09:18;;;;;;;0.40;0.40;;;;;;;16.87;50.52;98262.56;5087888;28;20103;-85
2022/04/26 09:11:58;;;;;;;0.40;0.40;;;;;;;16.35;51.96;98261.88;5123963;28;20032;-88
2022/04/26 09:18:20;;;;;;;0.30;0.30;;;;;;;15.43;54.15;98259.84;5095333;28;20024;-87
2022/04/26 09:20:55;;;;;;;0.30;0.30;;;;;;;15.31;54.58;98271.16;5097026;28;20040;-87
2022/04/26 09:23:39;;;;;;;0.40;0.40;;;;;;;15.25;55.01;98267.69;5077970;28;20154;-87
2022/04/26 09:26:15;;;;;;;0.30;0.30;;;;;;;15.32;55.05;98261.91;5105049;28;20067;-86
2022/04/26 09:28:45;;;;;;;0.30;0.30;;;;;;;15.17;55.73;98266.44;5105168;28;20054;-87
2022/04/26 09:31:24;;;;;;;0.30;0.30;;;;;;;15.16;55.81;98270.25;5108307;28;20606;-85
2022/04/26 09:34:10;;;;;;;0.30;0.30;;;;;;;15.11;55.85;98267.59;5041011;28;20103;-86
2022/04/26 09:36:50;;;;;;;0.40;0.40;;;;;;;15.25;56.00;98266.91;5122816;28;20050;-86
2022/04/26 09:39:20;;;;;;;0.40;0.40;;;;;;;15.45;55.29;98258.44;5105548;28;20119;-85
2022/04/26 09:42:08;;;;;;;0.38;0.38;;;;;;;15.50;55.20;98258.38;5118997;28;20024;-87
2022/04/26 09:44:40;;;;;;;0.40;0.40;;;;;;;15.76;55.07;98258.00;5084608;28;20544;-88
2022/04/26 09:47:10;;;;;;;0.35;0.35;;;;;;;15.94;54.65;98265.31;4750950;28;10000606;-87
2022/04/26 09:49:38;;;;;;;0.40;0.40;;;;;;;15.54;54.63;98258.59;5100868;28;20106;-88
2022/04/26 09:52:10;;;;;;;0.40;0.40;;;;;;;15.41;55.36;98262.84;5069038;28;20080;-87
2022/04/26 09:54:38;;;;;;;0.40;0.40;;;;;;;15.26;55.94;98263.88;5055536;28;20059;-87
2022/04/26 09:57:06;;;;;;;0.40;0.40;;;;;;;15.28;54.82;98260.88;5061601;28;20071;-85
2022/04/26 09:59:53;;;;;;;0.30;0.30;;;;;;;15.36;54.90;98268.38;5049059;28;20602;-85
2022/04/26 10:02:24;;;;;;;0.40;0.40;;;;;;;15.39;55.16;98274.03;5063285;28;20052;-85
2022/04/26 10:04:58;;;;;;;0.40;0.40;;;;;;;15.12;55.25;98265.72;5059964;28;20181;-86
2022/04/26 10:07:26;;;;;;;0.40;0.40;;;;;;;14.97;55.92;98274.06;5050650;28;20124;-87
2022/04/26 10:09:54;;;;;;;0.30;0.30;;;;;;;14.90;55.90;98282.56;5055176;28;20080;-86
2022/04/26 10:12:22;;;;;;;0.30;0.30;;;;;;;14.72;56.35;98287.66;5045333;28;20560;-85
2022/04/26 10:14:49;;;;;;;0.35;0.35;;;;;;;14.59;56.56;98285.63;5036240;28;20576;-84
2022/04/26 10:17:20;;;;;;;0.30;0.30;;;;;;;14.59;56.74;98284.81;5023473;28;20045;-86
2022/04/26 10:19:47;;;;;;;0.30;0.30;;;;;;;14.66;56.81;98287.97;5016216;28;20054;-85
2022/04/26 10:23:01;;;;;;;0.30;0.30;;;;;;;14.72;56.64;98290.34;5042421;28;20523;-84
2022/04/26 10:25:30;;;;;;;0.30;0.30;;;;;;;14.55;56.66;98287.28;5055365;28;20084;-85
2022/04/26 10:28:28;;;;;;;0.30;0.30;;;;;;;14.43;56.94;98284.97;5071282;28;20455;-84
2022/04/26 10:30:57;;;;;;;0.40;0.40;;;;;;;14.43;57.19;98292.25;5087724;28;20094;-85
2022/04/26 10:33:36;;;;;;;0.40;0.40;;;;;;;14.58;57.07;98291.34;5080776;28;20110;-85
2022/04/26 10:36:29;;;;;;;0.40;0.40;;;;;;;15.00;56.39;98287.06;5080039;28;20051;-85
2022/04/26 10:39:05;;;;;;;0.40;0.40;;;;;;;15.21;54.78;98287.59;5084420;28;20058;-85
2022/04/26 10:41:34;;;;;;;0.40;0.40;;;;;;;15.26;54.09;98295.69;5082862;28;20726;-85
2022/04/26 10:44:12;;;;;;;0.40;0.40;;;;;;;15.37;54.12;98289.03;5098733;28;20052;-85
2022/04/26 10:46:40;;;;;;;0.45;0.45;;;;;;;15.17;53.77;98284.66;5079603;28;20407;-84
2022/04/26 10:49:40;;;;;;;0.40;0.40;;;;;;;15.05;54.35;98282.38;5103476;28;20096;-84
2022/04/26 10:52:22;;;;;;;0.40;0.40;;;;;;;15.07;54.19;98287.53;5063664;28;20060;-84
2022/04/26 10:54:55;;;;;;;0.40;0.40;;;;;;;15.05;54.24;98290.50;5093326;28;20258;-85
2022/04/26 10:57:26;;;;;;;0.30;0.30;;;;;;;14.86;54.74;98293.22;5084216;28;20063;-85
2022/04/26 11:00:15;;;;;;;0.40;0.40;;;;;;;14.77;55.47;98292.22;5060676;28;20046;-83
2022/04/26 11:02:50;;;;;;;0.40;0.40;;;;;;;14.70;55.26;98284.41;5094081;28;20075;-83
2022/04/26 11:05:24;;;;;;;0.30;0.30;;;;;;;14.63;55.05;98294.78;5067796;28;20109;-86
2022/04/26 11:07:52;;;;;;;0.30;0.30;;;;;;;14.56;55.30;98301.66;5097538;28;20101;-84
2022/04/26 11:10:22;;;;;;;0.40;0.40;;;;;;;14.45;55.98;98293.59;5092757;28;20070;-85
2022/04/26 11:12:50;;;;;;;0.40;0.40;;;;;;;14.51;56.03;98291.66;5110504;28;20575;-84
2022/04/26 11:15:20;;;;;;;0.40;0.40;;;;;;;14.61;56.49;98294.31;5085856;28;20479;-84
2022/04/26 11:17:49;;;;;;;0.40;0.40;;;;;;;14.79;55.86;98289.22;5098013;28;20040;-85
2022/04/26 11:20:21;;;;;;;0.32;0.32;;;;;;;14.71;55.40;98290.63;5080717;28;20052;-83
2022/04/26 11:22:56;;;;;;;0.40;0.40;;;;;;;14.63;55.36;98294.78;5102186;28;20073;-84
2022/04/26 11:28:14;;;;;;;0.40;0.40;;;;;;;14.77;54.90;98288.69;5084160;28;20502;-82
2022/04/26 11:30:47;;;;;;;0.40;0.40;;;;;;;14.85;55.32;98301.63;5104108;28;20100;-83
2022/04/26 11:33:23;;;;;;;0.40;0.40;;;;;;;14.77;54.95;98291.41;5098500;28;20391;-86
2022/04/26 11:35:56;;;;;;;0.40;0.40;;;;;;;14.74;54.79;98292.81;5098236;28;20062;-84
2022/04/26 11:38:25;;;;;;;0.40;0.40;;;;;;;14.69;54.95;98282.78;5099425;28;20354;-85
2022/04/26 11:40:56;;;;;;;0.40;0.40;;;;;;;14.76;54.92;98287.06;5088970;28;20047;-86
2022/04/26 11:43:26;;;;;;;0.40;0.40;;;;;;;14.76;55.14;98285.16;5078655;28;20101;-84
2022/04/26 11:45:55;;;;;;;0.50;0.50;;;;;;;14.86;54.08;98282.34;5087588;28;20578;-85
2022/04/26 11:48:25;;;;;;;0.50;0.50;;;;;;;14.89;53.88;98279.03;5100839;28;20413;-85
2022/04/26 11:50:54;;;;;;;0.40;0.40;;;;;;;14.92;53.87;98281.16;5092737;28;20076;-85
2022/04/26 11:53:23;;;;;;;0.40;0.40;;;;;;;14.96;54.12;98284.09;5091182;28;20040;-85
2022/04/26 11:55:54;;;;;;;0.40;0.40;;;;;;;15.19;54.14;98277.00;5094050;28;20063;-84
2022/04/26 11:58:22;;;;;;;0.40;0.40;;;;;;;15.39;52.66;98278.66;5111151;28;20056;-86
2022/04/26 12:00:57;;;;;;;0.40;0.40;;;;;;;15.66;52.01;98272.53;5107293;28;20047;-87
2022/04/26 12:03:26;;;;;;;0.40;0.40;;;;;;;15.71;50.76;98274.41;5106965;28;20105;-84
2022/04/26 12:06:00;;;;;;;0.40;0.40;;;;;;;15.79;50.85;98265.56;5084322;28;20054;-85
2022/04/26 12:08:29;;;;;;;0.40;0.40;;;;;;;15.90;50.77;98271.66;5064042;28;20048;-83
2022/04/26 12:11:15;;;;;;;0.50;0.50;;;;;;;16.22;50.27;98266.19;5080056;28;20044;-85
2022/04/26 12:13:42;;;;;;;0.55;0.55;;;;;;;16.65;49.42;98262.44;5077045;28;20048;-88
2022/04/26 12:16:13;;;;;;;0.50;0.50;;;;;;;16.91;48.82;98257.28;5112348;28;20051;-87
2022/04/26 12:19:00;;;;;;;0.47;0.47;;;;;;;16.78;48.91;98267.09;5090281;28;20559;-85
2022/04/26 12:21:28;;;;;;;0.40;0.40;;;;;;;16.83;48.49;98263.47;5085846;28;20456;-86
2022/04/26 12:24:13;;;;;;;0.40;0.40;;;;;;;16.75;48.90;98259.50;5091995;28;20056;-86
2022/04/26 12:26:51;;;;;;;0.40;0.40;;;;;;;16.68;48.23;98259.91;5091405;28;20056;-86
2022/04/26 12:29:19;;;;;;;0.40;0.40;;;;;;;16.62;48.45;98260.31;5101513;28;20048;-85
2022/04/26 12:31:47;;;;;;;0.40;0.40;;;;;;;16.49;48.39;98250.22;5085560;28;20110;-85
2022/04/26 12:34:26;;;;;;;0.40;0.40;;;;;;;16.43;48.58;98252.22;5091485;28;20070;-84
2022/04/26 12:37:06;;;;;;;0.30;0.30;;;;;;;16.42;48.81;98259.56;5103045;28;20086;-86
2022/04/26 12:39:36;;;;;;;0.40;0.40;;;;;;;16.19;49.14;98266.00;5101921;28;20056;-86
2022/04/26 12:42:07;;;;;;;0.40;0.40;;;;;;;15.98;48.31;98255.47;5108167;28;20037;-87
2022/04/26 12:44:37;;;;;;;0.30;0.30;;;;;;;16.19;48.03;98257.84;5093286;28;20055;-86
2022/04/26 12:50:31;;;;;;;0.40;0.40;;;;;;;16.28;47.08;98266.94;5109368;28;20044;-84
2022/04/26 12:53:02;;;;;;;0.40;0.40;;;;;;;16.17;47.38;98260.84;5098577;28;20082;-85
2022/04/26 12:55:37;;;;;;;0.30;0.30;;;;;;;16.17;47.48;98263.56;4746644;27;10000775;-85
2022/04/26 12:58:06;;;;;;;0.30;0.30;;;;;;;16.19;47.69;98266.81;5107512;28;20530;-85
2022/04/26 13:00:41;;;;;;;0.40;0.40;;;;;;;16.24;47.71;98255.81;5082439;28;20052;-86
2022/04/26 13:03:12;;;;;;;0.40;0.40;;;;;;;16.36;47.18;98258.06;5101966;28;20048;-84
2022/04/26 13:05:48;;;;;;;0.40;0.40;;;;;;;16.04;47.72;98267.88;5095513;28;20059;-84
2022/04/26 13:08:17;;;;;;;0.40;0.40;;;;;;;15.87;47.82;98267.59;5107138;28;20587;-83
2022/04/26 13:10:47;;;;;;;0.40;0.40;;;;;;;15.70;48.50;98261.91;5110372;28;20077;-85
2022/04/26 13:13:15;;;;;;;0.40;0.40;;;;;;;15.86;48.79;98259.75;5094674;28;20506;-83
2022/04/26 13:15:43;;;;;;;0.30;0.30;;;;;;;15.85;47.72;98256.25;5062900;28;20047;-84
2022/04/26 13:18:12;;;;;;;0.40;0.40;;;;;;;16.03;47.71;98255.38;5095203;28;20056;-84
2022/04/26 13:20:39;;;;;;;0.50;0.50;;;;;;;16.54;46.58;98261.00;5073562;28;20099;-84
2022/04/26 13:23:14;;;;;;;0.60;0.60;;;;;;;17.58;44.18;98258.59;5122404;28;20054;-84
2022/04/26 13:25:43;;;;;;;0.50;0.50;;;;;;;17.94;43.17;98256.63;5112271;28;20043;-84
2022/04/26 13:28:10;;;;;;;0.40;0.40;;;;;;;18.07;42.96;98265.06;5102683;28;20050;-84
2022/04/26 13:30:37;;;;;;;0.40;0.40;;;;;;;18.01;43.07;98260.84;5104838;28;20077;-82
2022/04/26 13:33:05;;;;;;;0.40;0.40;;;;;;;17.86;42.58;98256.56;5098847;28;20131;-83
2022/04/26 13:35:33;;;;;;;0.30;0.30;;;;;;;17.52;43.02;98263.31;5094176;28;20048;-86
2022/04/26 13:38:01;;;;;;;0.30;0.30;;;;;;;17.15;43.37;98251.63;5086539;28;20059;-84
2022/04/26 13:40:28;;;;;;;0.35;0.35;;;;;;;16.92;43.65;98250.75;5097357;27;20071;-85
2022/04/26 13:42:56;;;;;;;0.30;0.30;;;;;;;16.64;44.39;98258.09;5097374;28;20582;-85
2022/04/26 13:45:49;;;;;;;0.30;0.30;;;;;;;16.54;44.17;98252.84;5112603;28;20475;-86
2022/04/26 13:48:16;;;;;;;0.30;0.30;;;;;;;16.29;44.17;98251.41;5090261;28;20052;-85
2022/04/26 13:50:43;;;;;;;0.30;0.30;;;;;;;16.13;44.58;98248.97;5101440;27;20708;-84
2022/04/26 13:53:10;;;;;;;0.40;0.40;;;;;;;16.32;44.85;98254.31;5094872;28;20119;-85
2022/04/26 13:55:38;;;;;;;0.40;0.40;;;;;;;16.46;43.95;98249.72;5101924;28;20104;-85
2022/04/26 13:58:08;;;;;;;0.20;0.20;;;;;;;16.39;43.81;98257.47;5107526;28;20043;-87
2022/04/26 14:00:36;;;;;;;0.30;0.30;;;;;;;16.26;43.88;98247.38;5104117;28;20047;-85
2022/04/26 14:03:06;;;;;;;0.40;0.40;;;;;;;16.20;44.05;98257.53;5105916;28;20044;-85
2022/04/26 14:05:34;;;;;;;0.30;0.30;;;;;;;16.08;44.42;98257.22;5078790;28;20044;-85
2022/04/26 14:08:06;;;;;;;0.30;0.30;;;;;;;16.04;44.55;98250.75;5080629;28;20097;-85
2022/04/26 14:10:34;;;;;;;0.30;0.30;;;;;;;15.88;44.50;98250.19;5098173;28;20052;-85
2022/04/26 14:13:05;;;;;;;0.30;0.30;;;;;;;15.86;44.21;98252.41;5079278;28;20063;-85
2022/04/26 14:23:51;;;;;;;0.30;0.30;;;;;;;15.38;45.46;98250.66;5082367;28;20139;-85
2022/04/26 14:26:20;;;;;;;0.30;0.30;;;;;;;15.36;45.87;98241.19;5082205;28;20059;-87
2022/04/26 14:28:47;;;;;;;0.30;0.30;;;;;;;15.18;46.18;98257.19;5100992;28;20052;-84
2022/04/26 14:31:14;;;;;;;0.30;0.30;;;;;;;14.97;46.79;98261.28;5095778;28;20066;-85
2022/04/26 14:33:41;;;;;;;0.30;0.30;;;;;;;14.86;47.09;98257.06;5076566;28;20047;-86
2022/04/26 14:36:08;;;;;;;0.32;0.32;;;;;;;14.84;47.33;98264.72;5075991;28;20090;-87
2022/04/26 14:38:36;;;;;;;0.30;0.30;;;;;;;14.92;47.12;98259.44;5017312;28;20148;-85
2022/04/26 14:41:03;;;;;;;0.30;0.30;;;;;;;14.88;47.48;98263.00;5038851;28;20057;-86
2022/04/26 14:43:30;;;;;;;0.30;0.30;;;;;;;14.96;47.34;98256.94;5033838;28;20057;-84
2022/04/26 14:45:57;;;;;;;0.30;0.30;;;;;;;14.89;47.32;98270.09;5035082;28;20548;-84
2022/04/26 14:48:26;;;;;;;0.30;0.30;;;;;;;14.88;47.47;98273.88;5034206;28;20041;-84
2022/04/26 14:50:55;;;;;;;0.30;0.30;;;;;;;14.82;47.38;98267.72;5041900;28;20109;-85
2022/04/26 14:53:24;;;;;;;0.30;0.30;;;;;;;14.77;47.81;98272.41;5038894;28;20045;-86
2022/04/26 14:56:09;;;;;;;0.30;0.30;;;;;;;14.74;47.85;98274.59;5035315;28;20436;-86
2022/04/26 14:59:00;;;;;;;0.30;0.30;;;;;;;14.69;47.97;98273.84;5037706;28;20053;-85
2022/04/26 15:01:35;;;;;;;0.30;0.30;;;;;;;14.64;48.07;98276.63;5017801;28;20095;-87
2022/04/26 15:04:02;;;;;;;0.30;0.30;;;;;;;14.62;48.18;98276.91;5036523;28;20063;-85
2022/04/26 15:06:30;;;;;;;0.30;0.30;;;;;;;14.54;48.59;98277.53;5003604;28;20053;-85
2022/04/26 15:11:43;;;;;;;0.30;0.30;;;;;;;14.59;48.46;98282.09;5101224;28;20074;-86
2022/04/26 15:17:01;;;;;;;0.30;0.30;;;;;;;14.42;48.60;98282.50;5095919;28;20105;-85
2022/04/26 15:19:35;;;;;;;0.30;0.30;;;;;;;14.28;48.71;98285.91;5082900;28;20040;-85
2022/04/26 15:22:03;;;;;;;0.30;0.30;;;;;;;14.20;48.91;98283.00;5097315;28;20511;-86
2022/04/26 15:24:30;;;;;;;0.30;0.30;;;;;;;14.14;48.97;98281.44;5101985;28;20078;-84
2022/04/26 15:26:58;;;;;;;0.30;0.30;;;;;;;14.06;49.48;98283.66;5069686;28;20058;-84
2022/04/26 15:29:25;;;;;;;0.30;0.30;;;;;;;14.02;49.47;98284.50;5110040;28;20066;-85
2022/04/26 15:31:54;;;;;;;0.30;0.30;;;;;;;14.06;49.46;98291.00;5090076;28;20056;-84
2022/04/26 15:34:21;;;;;;;0.30;0.30;;;;;;;14.09;49.96;98285.00;5050165;28;20073;-86
2022/04/26 15:36:48;;;;;;;0.30;0.30;;;;;;;14.19;49.44;98279.47;5097884;28;20116;-85
2022/04/26 15:39:15;;;;;;;0.30;0.30;;;;;;;14.23;49.63;98282.41;5095928;28;20063;-85
2022/04/26 15:41:42;;;;;;;0.30;0.30;;;;;;;14.16;49.30;98285.47;5100388;28;20055;-85
2022/04/26 15:44:10;;;;;;;0.30;0.30;;;;;;;14.09;49.48;98282.28;5108743;28;20055;-83
2022/04/26 15:46:41;;;;;;;0.30;0.30;;;;;;;14.02;49.97;98289.94;5100110;28;20070;-84
2022/04/26 15:49:12;;;;;;;0.30;0.30;;;;;;;14.00;50.11;98300.25;5080783;28;20066;-84
2022/04/26 15:51:42;;;;;;;0.30;0.30;;;;;;;13.90;50.28;98295.75;5100589;28;20059;-85
2022/04/26 15:54:09;;;;;;;0.30;0.30;;;;;;;13.81;50.61;98292.81;5082844;28;20055;-84
2022/04/26 15:56:37;;;;;;;0.30;0.30;;;;;;;13.84;50.82;98294.94;5078629;28;20116;-86